sensor_id;sensor_type;location;lat;lon;timestamp;temperature;humidity
21171;DHT22;10743;52.160;20.910;2023-02-22T00:01:54;21.00;41.90
21171;DHT22;10743;52.160;20.910;2023-02-22T00:07:06;21.00;41.60
21171;DHT22;10743;52.160;20.910;2023-02-22T00:09:33;21.00;41.30
21171;DHT22;10743;52.160;20.910;2023-02-22T00:12:00;20.90;40.70
21171;DHT22;10743;52.160;20.910;2023-02-22T00:14:27;20.90;41.40
21171;DHT22;10743;52.160;20.910;2023-02-22T00:16:54;21.00;41.80
21171;DHT22;10743;52.160;20.910;2023-02-22T00:19:26;20.90;42.20
21171;DHT22;10743;52.160;20.910;2023-02-22T00:24:24;21.00;41.00
21171;DHT22;10743;52.160;20.910;2023-02-22T00:26:53;20.60;42.50
21171;DHT22;10743;52.160;20.910;2023-02-22T00:29:22;20.90;41.90
21171;DHT22;10743;52.160;20.910;2023-02-22T00:34:18;20.80;38.40
21171;DHT22;10743;52.160;20.910;2023-02-22T00:36:46;21.00;38.60
21171;DHT22;10743;52.160;20.910;2023-02-22T00:39:14;20.80;41.90
21171;DHT22;10743;52.160;20.910;2023-02-22T00:41:42;20.90;37.30
21171;DHT22;10743;52.160;20.910;2023-02-22T00:44:10;20.90;36.70
21171;DHT22;10743;52.160;20.910;2023-02-22T00:46:38;20.80;41.80
21171;DHT22;10743;52.160;20.910;2023-02-22T00:49:05;20.80;42.00
21171;DHT22;10743;52.160;20.910;2023-02-22T00:54:00;20.70;42.10
21171;DHT22;10743;52.160;20.910;2023-02-22T00:56:27;20.60;40.90
21171;DHT22;10743;52.160;20.910;2023-02-22T00:58:54;20.60;41.70
21171;DHT22;10743;52.160;20.910;2023-02-22T01:03:50;20.70;42.20
21171;DHT22;10743;52.160;20.910;2023-02-22T01:06:18;20.60;42.20
21171;DHT22;10743;52.160;20.910;2023-02-22T01:08:46;20.60;41.90
21171;DHT22;10743;52.160;20.910;2023-02-22T01:11:14;20.50;35.90
21171;DHT22;10743;52.160;20.910;2023-02-22T01:13:42;20.40;42.00
21171;DHT22;10743;52.160;20.910;2023-02-22T01:16:13;20.40;42.10
21171;DHT22;10743;52.160;20.910;2023-02-22T01:18:40;20.40;42.60
21171;DHT22;10743;52.160;20.910;2023-02-22T01:21:07;20.30;40.80
21171;DHT22;10743;52.160;20.910;2023-02-22T01:23:35;20.30;41.40
21171;DHT22;10743;52.160;20.910;2023-02-22T01:26:03;20.20;41.60
21171;DHT22;10743;52.160;20.910;2023-02-22T01:28:32;20.20;36.10
21171;DHT22;10743;52.160;20.910;2023-02-22T01:31:01;20.20;41.30
21171;DHT22;10743;52.160;20.910;2023-02-22T01:35:57;20.20;36.10
21171;DHT22;10743;52.160;20.910;2023-02-22T01:38:26;20.00;42.30
21171;DHT22;10743;52.160;20.910;2023-02-22T01:40:53;20.00;42.40
21171;DHT22;10743;52.160;20.910;2023-02-22T01:43:29;19.90;42.60
21171;DHT22;10743;52.160;20.910;2023-02-22T01:48:42;18.90;42.00
21171;DHT22;10743;52.160;20.910;2023-02-22T01:51:21;19.80;36.00
21171;DHT22;10743;52.160;20.910;2023-02-22T01:53:59;19.80;36.10
21171;DHT22;10743;52.160;20.910;2023-02-22T01:56:31;19.70;43.00
21171;DHT22;10743;52.160;20.910;2023-02-22T01:59:07;19.60;43.10
21171;DHT22;10743;52.160;20.910;2023-02-22T02:01:39;19.70;43.20
21171;DHT22;10743;52.160;20.910;2023-02-22T02:04:16;19.60;43.40
21171;DHT22;10743;52.160;20.910;2023-02-22T02:06:46;19.60;43.30
21171;DHT22;10743;52.160;20.910;2023-02-22T02:11:59;19.60;43.20
21171;DHT22;10743;52.160;20.910;2023-02-22T02:16:58;19.50;42.80
21171;DHT22;10743;52.160;20.910;2023-02-22T02:22:49;19.50;43.10
21171;DHT22;10743;52.160;20.910;2023-02-22T02:34:38;19.40;36.60
21171;DHT22;10743;52.160;20.910;2023-02-22T02:40:47;19.40;36.70
21171;DHT22;10743;52.160;20.910;2023-02-22T02:46:19;19.30;43.50
21171;DHT22;10743;52.160;20.910;2023-02-22T02:48:56;19.40;43.30
21171;DHT22;10743;52.160;20.910;2023-02-22T02:51:29;19.20;43.50
21171;DHT22;10743;52.160;20.910;2023-02-22T02:54:01;19.30;36.50
21171;DHT22;10743;52.160;20.910;2023-02-22T02:56:28;19.20;43.50
21171;DHT22;10743;52.160;20.910;2023-02-22T02:58:56;19.30;43.40
21171;DHT22;10743;52.160;20.910;2023-02-22T03:01:52;19.20;43.40
21171;DHT22;10743;52.160;20.910;2023-02-22T03:05:02;19.90;36.80
21171;DHT22;10743;52.160;20.910;2023-02-22T03:07:54;19.20;41.30
21171;DHT22;10743;52.160;20.910;2023-02-22T03:17:57;19.10;43.50
21171;DHT22;10743;52.160;20.910;2023-02-22T03:23:10;19.10;43.40
21171;DHT22;10743;52.160;20.910;2023-02-22T03:25:52;19.10;43.50
21171;DHT22;10743;52.160;20.910;2023-02-22T03:28:25;19.10;43.40
21171;DHT22;10743;52.160;20.910;2023-02-22T03:31:16;18.90;43.40
21171;DHT22;10743;52.160;20.910;2023-02-22T03:33:52;19.10;43.50
21171;DHT22;10743;52.160;20.910;2023-02-22T03:36:42;19.00;36.20
21171;DHT22;10743;52.160;20.910;2023-02-22T03:39:14;18.90;36.10
21171;DHT22;10743;52.160;20.910;2023-02-22T03:41:47;19.00;43.10
21171;DHT22;10743;52.160;20.910;2023-02-22T03:44:24;18.90;36.30
21171;DHT22;10743;52.160;20.910;2023-02-22T03:46:54;17.90;42.70
21171;DHT22;10743;52.160;20.910;2023-02-22T03:49:31;18.80;36.30
21171;DHT22;10743;52.160;20.910;2023-02-22T03:52:02;19.10;43.70
21171;DHT22;10743;52.160;20.910;2023-02-22T03:57:19;18.80;43.70
21171;DHT22;10743;52.160;20.910;2023-02-22T04:02:28;18.60;40.60
21171;DHT22;10743;52.160;20.910;2023-02-22T04:04:55;18.70;43.10
21171;DHT22;10743;52.160;20.910;2023-02-22T04:15:03;18.50;44.20
21171;DHT22;10743;52.160;20.910;2023-02-22T04:17:32;18.50;44.50
21171;DHT22;10743;52.160;20.910;2023-02-22T04:22:34;18.40;38.40
21171;DHT22;10743;52.160;20.910;2023-02-22T04:27:30;18.40;44.10
21171;DHT22;10743;52.160;20.910;2023-02-22T04:29:57;18.40;44.30
21171;DHT22;10743;52.160;20.910;2023-02-22T04:32:24;18.30;44.50
21171;DHT22;10743;52.160;20.910;2023-02-22T04:34:52;18.30;44.60
21171;DHT22;10743;52.160;20.910;2023-02-22T04:37:19;18.40;44.00
21171;DHT22;10743;52.160;20.910;2023-02-22T04:47:09;18.40;44.50
21171;DHT22;10743;52.160;20.910;2023-02-22T04:49:36;18.60;44.40
21171;DHT22;10743;52.160;20.910;2023-02-22T04:52:05;18.40;44.80
21171;DHT22;10743;52.160;20.910;2023-02-22T05:04:28;18.40;43.50
21171;DHT22;10743;52.160;20.910;2023-02-22T05:06:56;18.80;43.90
21171;DHT22;10743;52.160;20.910;2023-02-22T05:09:23;18.70;43.20
21171;DHT22;10743;52.160;20.910;2023-02-22T05:11:50;18.70;43.70
21171;DHT22;10743;52.160;20.910;2023-02-22T05:16:44;18.90;42.80
21171;DHT22;10743;52.160;20.910;2023-02-22T05:19:14;18.70;42.60
21171;DHT22;10743;52.160;20.910;2023-02-22T05:21:41;18.00;42.40
21171;DHT22;10743;52.160;20.910;2023-02-22T05:24:08;18.80;42.20
21171;DHT22;10743;52.160;20.910;2023-02-22T05:26:35;18.90;42.30
21171;DHT22;10743;52.160;20.910;2023-02-22T05:31:30;18.20;42.50
21171;DHT22;10743;52.160;20.910;2023-02-22T05:33:57;18.80;38.90
21171;DHT22;10743;52.160;20.910;2023-02-22T05:36:25;18.80;42.50
21171;DHT22;10743;52.160;20.910;2023-02-22T05:38:54;18.80;40.40
21171;DHT22;10743;52.160;20.910;2023-02-22T05:41:22;18.70;42.30
21171;DHT22;10743;52.160;20.910;2023-02-22T05:43:49;18.70;42.60
21171;DHT22;10743;52.160;20.910;2023-02-22T05:46:16;18.70;42.10
21171;DHT22;10743;52.160;20.910;2023-02-22T05:51:10;18.70;42.20
21171;DHT22;10743;52.160;20.910;2023-02-22T05:56:05;18.50;42.40
21171;DHT22;10743;52.160;20.910;2023-02-22T06:01:00;18.50;41.20
21171;DHT22;10743;52.160;20.910;2023-02-22T06:03:29;18.50;42.60
21171;DHT22;10743;52.160;20.910;2023-02-22T06:05:56;18.40;42.90
21171;DHT22;10743;52.160;20.910;2023-02-22T06:08:23;18.40;43.40
21171;DHT22;10743;52.160;20.910;2023-02-22T06:10:50;18.20;43.20
21171;DHT22;10743;52.160;20.910;2023-02-22T06:20:40;18.40;43.60
21171;DHT22;10743;52.160;20.910;2023-02-22T06:30:30;18.20;43.80
21171;DHT22;10743;52.160;20.910;2023-02-22T06:42:48;18.40;43.50
21171;DHT22;10743;52.160;20.910;2023-02-22T06:45:16;18.50;43.90
21171;DHT22;10743;52.160;20.910;2023-02-22T06:50:26;18.50;43.70
21171;DHT22;10743;52.160;20.910;2023-02-22T06:52:56;18.40;43.80
21171;DHT22;10743;52.160;20.910;2023-02-22T06:55:29;18.40;43.80
21171;DHT22;10743;52.160;20.910;2023-02-22T07:00:26;17.60;43.30
21171;DHT22;10743;52.160;20.910;2023-02-22T07:02:54;18.60;43.90
21171;DHT22;10743;52.160;20.910;2023-02-22T07:05:23;18.50;36.90
21171;DHT22;10743;52.160;20.910;2023-02-22T07:07:53;18.40;36.80
21171;DHT22;10743;52.160;20.910;2023-02-22T07:10:24;18.60;36.80
21171;DHT22;10743;52.160;20.910;2023-02-22T07:15:23;18.70;43.80
21171;DHT22;10743;52.160;20.910;2023-02-22T07:20:19;18.70;43.70
21171;DHT22;10743;52.160;20.910;2023-02-22T07:22:48;18.60;36.60
21171;DHT22;10743;52.160;20.910;2023-02-22T07:25:16;18.70;39.00
21171;DHT22;10743;52.160;20.910;2023-02-22T07:27:45;18.70;43.60
21171;DHT22;10743;52.160;20.910;2023-02-22T07:30:32;18.70;36.30
21171;DHT22;10743;52.160;20.910;2023-02-22T07:33:07;18.80;43.20
21171;DHT22;10743;52.160;20.910;2023-02-22T07:38:06;18.80;36.10
21171;DHT22;10743;52.160;20.910;2023-02-22T07:40:37;18.80;36.10
21171;DHT22;10743;52.160;20.910;2023-02-22T07:45:47;18.90;42.50
21171;DHT22;10743;52.160;20.910;2023-02-22T07:48:17;19.00;42.40
21171;DHT22;10743;52.160;20.910;2023-02-22T07:50:45;19.50;42.60
21171;DHT22;10743;52.160;20.910;2023-02-22T07:53:16;18.90;35.60
21171;DHT22;10743;52.160;20.910;2023-02-22T07:55:50;19.10;37.40
21171;DHT22;10743;52.160;20.910;2023-02-22T07:58:21;19.00;36.20
21171;DHT22;10743;52.160;20.910;2023-02-22T08:00:49;19.00;42.10
21171;DHT22;10743;52.160;20.910;2023-02-22T08:03:18;19.20;41.70
21171;DHT22;10743;52.160;20.910;2023-02-22T08:05:50;19.00;41.60
21171;DHT22;10743;52.160;20.910;2023-02-22T08:08:19;19.20;41.60
21171;DHT22;10743;52.160;20.910;2023-02-22T08:10:47;19.10;41.60
21171;DHT22;10743;52.160;20.910;2023-02-22T08:18:13;19.20;41.30
21171;DHT22;10743;52.160;20.910;2023-02-22T08:20:43;19.10;41.10
21171;DHT22;10743;52.160;20.910;2023-02-22T08:23:12;19.20;39.30
21171;DHT22;10743;52.160;20.910;2023-02-22T08:25:41;19.30;40.80
21171;DHT22;10743;52.160;20.910;2023-02-22T08:28:14;19.20;37.40
21171;DHT22;10743;52.160;20.910;2023-02-22T08:33:13;19.30;40.90
21171;DHT22;10743;52.160;20.910;2023-02-22T08:35:46;19.30;34.30
21171;DHT22;10743;52.160;20.910;2023-02-22T08:38:26;19.40;34.10
21171;DHT22;10743;52.160;20.910;2023-02-22T08:40:55;19.30;39.90
21171;DHT22;10743;52.160;20.910;2023-02-22T08:43:23;19.40;36.10
21171;DHT22;10743;52.160;20.910;2023-02-22T08:45:50;19.50;40.40
21171;DHT22;10743;52.160;20.910;2023-02-22T08:48:20;19.40;33.80
21171;DHT22;10743;52.160;20.910;2023-02-22T08:50:47;19.40;40.50
21171;DHT22;10743;52.160;20.910;2023-02-22T08:53:15;19.50;33.60
21171;DHT22;10743;52.160;20.910;2023-02-22T08:55:43;19.50;33.70
21171;DHT22;10743;52.160;20.910;2023-02-22T08:58:11;19.10;34.10
21171;DHT22;10743;52.160;20.910;2023-02-22T09:00:39;19.60;35.10
21171;DHT22;10743;52.160;20.910;2023-02-22T09:03:11;19.50;33.60
21171;DHT22;10743;52.160;20.910;2023-02-22T09:05:40;19.50;40.20
21171;DHT22;10743;52.160;20.910;2023-02-22T09:08:08;19.50;39.80
21171;DHT22;10743;52.160;20.910;2023-02-22T09:10:36;19.60;40.10
21171;DHT22;10743;52.160;20.910;2023-02-22T09:13:03;19.60;39.40
21171;DHT22;10743;52.160;20.910;2023-02-22T09:15:32;19.50;40.40
21171;DHT22;10743;52.160;20.910;2023-02-22T09:18:03;19.50;40.00
21171;DHT22;10743;52.160;20.910;2023-02-22T09:25:28;19.40;33.20
21171;DHT22;10743;52.160;20.910;2023-02-22T09:27:56;19.60;39.70
21171;DHT22;10743;52.160;20.910;2023-02-22T09:30:30;19.60;33.00
21171;DHT22;10743;52.160;20.910;2023-02-22T09:33:06;19.60;33.00
21171;DHT22;10743;52.160;20.910;2023-02-22T09:35:37;19.60;33.10
21171;DHT22;10743;52.160;20.910;2023-02-22T09:40:40;19.50;33.40
21171;DHT22;10743;52.160;20.910;2023-02-22T09:43:37;19.70;32.90
21171;DHT22;10743;52.160;20.910;2023-02-22T09:51:49;19.70;39.80
21171;DHT22;10743;52.160;20.910;2023-02-22T09:54:37;19.80;39.90
21171;DHT22;10743;52.160;20.910;2023-02-22T09:57:11;19.80;39.80
21171;DHT22;10743;52.160;20.910;2023-02-22T10:00:19;19.80;32.80
21171;DHT22;10743;52.160;20.910;2023-02-22T10:05:38;19.80;39.80
21171;DHT22;10743;52.160;20.910;2023-02-22T10:08:13;19.80;32.70
21171;DHT22;10743;52.160;20.910;2023-02-22T10:10:46;19.80;32.80
21171;DHT22;10743;52.160;20.910;2023-02-22T10:14:22;19.80;39.40
21171;DHT22;10743;52.160;20.910;2023-02-22T10:25:35;19.80;32.70
21171;DHT22;10743;52.160;20.910;2023-02-22T10:31:19;19.80;32.70
21171;DHT22;10743;52.160;20.910;2023-02-22T10:33:57;19.80;38.90
21171;DHT22;10743;52.160;20.910;2023-02-22T10:36:27;19.60;38.90
21171;DHT22;10743;52.160;20.910;2023-02-22T10:39:01;19.70;38.60
21171;DHT22;10743;52.160;20.910;2023-02-22T10:41:46;19.90;38.50
21171;DHT22;10743;52.160;20.910;2023-02-22T10:46:43;20.00;31.30
21171;DHT22;10743;52.160;20.910;2023-02-22T10:49:19;20.00;37.40
21171;DHT22;10743;52.160;20.910;2023-02-22T10:51:59;19.90;30.90
21171;DHT22;10743;52.160;20.910;2023-02-22T10:54:38;19.90;35.80
21171;DHT22;10743;52.160;20.910;2023-02-22T10:57:08;19.80;30.60
21171;DHT22;10743;52.160;20.910;2023-02-22T10:59:39;19.70;31.00
21171;DHT22;10743;52.160;20.910;2023-02-22T11:02:18;19.80;31.40
21171;DHT22;10743;52.160;20.910;2023-02-22T11:07:31;19.60;34.70
21171;DHT22;10743;52.160;20.910;2023-02-22T11:10:07;19.50;33.50
21171;DHT22;10743;52.160;20.910;2023-02-22T11:12:37;19.40;30.80
21171;DHT22;10743;52.160;20.910;2023-02-22T11:17:45;18.90;31.00
21171;DHT22;10743;52.160;20.910;2023-02-22T11:20:20;19.30;38.00
21171;DHT22;10743;52.160;20.910;2023-02-22T11:22:52;19.30;36.00
21171;DHT22;10743;52.160;20.910;2023-02-22T11:25:25;19.10;32.50
21171;DHT22;10743;52.160;20.910;2023-02-22T11:30:31;19.20;35.50
21171;DHT22;10743;52.160;20.910;2023-02-22T11:35:50;19.10;31.10
21171;DHT22;10743;52.160;20.910;2023-02-22T11:43:48;19.20;31.80
21171;DHT22;10743;52.160;20.910;2023-02-22T11:46:25;19.00;37.70
21171;DHT22;10743;52.160;20.910;2023-02-22T11:49:04;19.10;35.70
21171;DHT22;10743;52.160;20.910;2023-02-22T11:51:41;19.10;34.90
21171;DHT22;10743;52.160;20.910;2023-02-22T12:14:55;19.20;31.20
21171;DHT22;10743;52.160;20.910;2023-02-22T12:18:44;19.20;31.30
21171;DHT22;10743;52.160;20.910;2023-02-22T12:21:13;19.20;37.50
21171;DHT22;10743;52.160;20.910;2023-02-22T12:26:36;19.20;37.10
21171;DHT22;10743;52.160;20.910;2023-02-22T12:32:16;19.30;36.80
21171;DHT22;10743;52.160;20.910;2023-02-22T12:35:19;19.30;30.40
21171;DHT22;10743;52.160;20.910;2023-02-22T12:43:42;19.10;36.70
21171;DHT22;10743;52.160;20.910;2023-02-22T12:46:58;19.30;30.40
21171;DHT22;10743;52.160;20.910;2023-02-22T12:49:33;19.20;31.00
21171;DHT22;10743;52.160;20.910;2023-02-22T12:58:08;18.30;36.00
21171;DHT22;10743;52.160;20.910;2023-02-22T13:00:59;19.30;30.50
21171;DHT22;10743;52.160;20.910;2023-02-22T13:03:38;19.30;30.40
21171;DHT22;10743;52.160;20.910;2023-02-22T13:06:20;19.20;36.70
21171;DHT22;10743;52.160;20.910;2023-02-22T13:12:12;19.30;34.20
21171;DHT22;10743;52.160;20.910;2023-02-22T13:15:26;19.30;36.70
21171;DHT22;10743;52.160;20.910;2023-02-22T13:23:53;19.30;36.70
21171;DHT22;10743;52.160;20.910;2023-02-22T13:38:00;19.10;35.60
21171;DHT22;10743;52.160;20.910;2023-02-22T13:52:55;19.40;30.10
21171;DHT22;10743;52.160;20.910;2023-02-22T13:55:27;19.20;36.80
21171;DHT22;10743;52.160;20.910;2023-02-22T13:58:01;19.00;30.10
21171;DHT22;10743;52.160;20.910;2023-02-22T14:00:40;19.10;29.90
21171;DHT22;10743;52.160;20.910;2023-02-22T14:06:35;19.00;30.00
21171;DHT22;10743;52.160;20.910;2023-02-22T14:09:08;19.10;30.00
21171;DHT22;10743;52.160;20.910;2023-02-22T14:11:40;19.10;30.00
21171;DHT22;10743;52.160;20.910;2023-02-22T14:14:10;19.10;30.00
21171;DHT22;10743;52.160;20.910;2023-02-22T14:16:38;19.10;36.60
21171;DHT22;10743;52.160;20.910;2023-02-22T14:19:13;19.10;34.70
21171;DHT22;10743;52.160;20.910;2023-02-22T14:22:01;19.10;29.50
21171;DHT22;10743;52.160;20.910;2023-02-22T14:24:49;19.10;29.70
21171;DHT22;10743;52.160;20.910;2023-02-22T14:29:53;19.10;29.60
21171;DHT22;10743;52.160;20.910;2023-02-22T14:32:33;19.00;35.90
21171;DHT22;10743;52.160;20.910;2023-02-22T14:35:12;19.00;34.20
21171;DHT22;10743;52.160;20.910;2023-02-22T14:38:04;19.00;30.00
21171;DHT22;10743;52.160;20.910;2023-02-22T14:40:35;19.00;29.70
21171;DHT22;10743;52.160;20.910;2023-02-22T14:43:05;19.10;32.00
21171;DHT22;10743;52.160;20.910;2023-02-22T14:45:55;19.00;29.60
21171;DHT22;10743;52.160;20.910;2023-02-22T14:48:27;19.00;35.20
21171;DHT22;10743;52.160;20.910;2023-02-22T14:51:23;19.00;34.70
21171;DHT22;10743;52.160;20.910;2023-02-22T14:54:17;19.00;30.60
21171;DHT22;10743;52.160;20.910;2023-02-22T14:57:06;18.90;32.00
21171;DHT22;10743;52.160;20.910;2023-02-22T15:02:19;18.90;29.50
21171;DHT22;10743;52.160;20.910;2023-02-22T15:04:53;19.00;30.10
21171;DHT22;10743;52.160;20.910;2023-02-22T15:07:30;18.90;29.40
21171;DHT22;10743;52.160;20.910;2023-02-22T15:10:16;18.90;29.60
21171;DHT22;10743;52.160;20.910;2023-02-22T15:12:57;18.80;29.50
21171;DHT22;10743;52.160;20.910;2023-02-22T15:16:20;19.30;35.30
21171;DHT22;10743;52.160;20.910;2023-02-22T15:21:19;18.80;29.30
21171;DHT22;10743;52.160;20.910;2023-02-22T15:23:56;18.80;29.10
21171;DHT22;10743;52.160;20.910;2023-02-22T15:26:38;18.80;34.70
21171;DHT22;10743;52.160;20.910;2023-02-22T15:29:39;18.70;29.40
21171;DHT22;10743;52.160;20.910;2023-02-22T15:35:13;18.60;30.90
21171;DHT22;10743;52.160;20.910;2023-02-22T15:37:43;18.70;33.00
21171;DHT22;10743;52.160;20.910;2023-02-22T15:40:15;18.70;29.30
21171;DHT22;10743;52.160;20.910;2023-02-22T15:42:49;18.70;28.90
21171;DHT22;10743;52.160;20.910;2023-02-22T15:45:24;18.60;34.60
21171;DHT22;10743;52.160;20.910;2023-02-22T15:47:52;18.50;35.00
21171;DHT22;10743;52.160;20.910;2023-02-22T15:50:29;18.60;28.60
21171;DHT22;10743;52.160;20.910;2023-02-22T15:53:04;18.70;29.70
21171;DHT22;10743;52.160;20.910;2023-02-22T15:55:37;18.60;33.80
21171;DHT22;10743;52.160;20.910;2023-02-22T16:00:48;18.50;31.10
21171;DHT22;10743;52.160;20.910;2023-02-22T16:03:20;18.50;28.90
21171;DHT22;10743;52.160;20.910;2023-02-22T16:05:55;18.50;29.00
21171;DHT22;10743;52.160;20.910;2023-02-22T16:08:49;18.40;28.70
21171;DHT22;10743;52.160;20.910;2023-02-22T16:11:34;18.40;29.10
21171;DHT22;10743;52.160;20.910;2023-02-22T16:14:28;18.40;32.20
21171;DHT22;10743;52.160;20.910;2023-02-22T16:19:51;18.30;31.70
21171;DHT22;10743;52.160;20.910;2023-02-22T16:25:31;18.40;28.60
21171;DHT22;10743;52.160;20.910;2023-02-22T16:28:21;18.30;30.00
21171;DHT22;10743;52.160;20.910;2023-02-22T16:30:56;18.40;32.10
21171;DHT22;10743;52.160;20.910;2023-02-22T16:33:24;18.30;34.10
21171;DHT22;10743;52.160;20.910;2023-02-22T16:38:23;18.20;28.60
21171;DHT22;10743;52.160;20.910;2023-02-22T16:40:54;18.20;28.80
21171;DHT22;10743;52.160;20.910;2023-02-22T16:43:27;18.20;29.30
21171;DHT22;10743;52.160;20.910;2023-02-22T16:48:29;18.10;34.00
21171;DHT22;10743;52.160;20.910;2023-02-22T16:51:01;18.10;28.70
21171;DHT22;10743;52.160;20.910;2023-02-22T16:53:33;18.00;34.40
21171;DHT22;10743;52.160;20.910;2023-02-22T16:56:05;18.00;34.40
21171;DHT22;10743;52.160;20.910;2023-02-22T16:58:37;18.20;34.60
21171;DHT22;10743;52.160;20.910;2023-02-22T17:03:33;18.00;33.60
21171;DHT22;10743;52.160;20.910;2023-02-22T17:06:03;18.00;35.10
21171;DHT22;10743;52.160;20.910;2023-02-22T17:08:31;18.60;35.20
21171;DHT22;10743;52.160;20.910;2023-02-22T17:10:58;18.00;34.40
21171;DHT22;10743;52.160;20.910;2023-02-22T17:13:27;18.00;35.00
21171;DHT22;10743;52.160;20.910;2023-02-22T17:15:56;17.90;28.80
21171;DHT22;10743;52.160;20.910;2023-02-22T17:18:25;18.00;32.10
21171;DHT22;10743;52.160;20.910;2023-02-22T17:23:22;17.80;35.50
21171;DHT22;10743;52.160;20.910;2023-02-22T17:25:55;17.80;30.70
21171;DHT22;10743;52.160;20.910;2023-02-22T17:28:25;17.80;28.90
21171;DHT22;10743;52.160;20.910;2023-02-22T17:30:55;17.90;31.00
21171;DHT22;10743;52.160;20.910;2023-02-22T17:33:30;17.80;31.80
21171;DHT22;10743;52.160;20.910;2023-02-22T17:36:01;17.90;28.40
21171;DHT22;10743;52.160;20.910;2023-02-22T17:40:59;17.80;28.30
21171;DHT22;10743;52.160;20.910;2023-02-22T17:43:27;17.80;28.30
21171;DHT22;10743;52.160;20.910;2023-02-22T17:50:51;17.70;35.10
21171;DHT22;10743;52.160;20.910;2023-02-22T17:53:19;17.80;35.10
21171;DHT22;10743;52.160;20.910;2023-02-22T17:55:51;17.70;35.00
21171;DHT22;10743;52.160;20.910;2023-02-22T18:00:48;17.80;34.70
21171;DHT22;10743;52.160;20.910;2023-02-22T18:03:18;17.80;34.60
21171;DHT22;10743;52.160;20.910;2023-02-22T18:05:56;17.80;29.40
21171;DHT22;10743;52.160;20.910;2023-02-22T18:08:29;17.60;35.80
21171;DHT22;10743;52.160;20.910;2023-02-22T18:13:29;17.60;35.10
21171;DHT22;10743;52.160;20.910;2023-02-22T18:15:57;17.80;31.10
21171;DHT22;10743;52.160;20.910;2023-02-22T18:18:31;17.70;28.30
21171;DHT22;10743;52.160;20.910;2023-02-22T18:23:28;17.70;35.00
21171;DHT22;10743;52.160;20.910;2023-02-22T18:25:57;17.70;28.50
21171;DHT22;10743;52.160;20.910;2023-02-22T18:31:18;17.70;28.60
21171;DHT22;10743;52.160;20.910;2023-02-22T18:33:48;17.70;34.60
21171;DHT22;10743;52.160;20.910;2023-02-22T18:36:18;17.70;28.50
21171;DHT22;10743;52.160;20.910;2023-02-22T18:38:51;17.70;28.60
21171;DHT22;10743;52.160;20.910;2023-02-22T18:41:21;17.70;35.20
21171;DHT22;10743;52.160;20.910;2023-02-22T18:43:53;17.70;31.10
21171;DHT22;10743;52.160;20.910;2023-02-22T18:46:26;17.60;33.90
21171;DHT22;10743;52.160;20.910;2023-02-22T18:51:24;17.60;28.50
21171;DHT22;10743;52.160;20.910;2023-02-22T18:53:54;17.70;28.60
21171;DHT22;10743;52.160;20.910;2023-02-22T18:56:27;17.60;28.70
21171;DHT22;10743;52.160;20.910;2023-02-22T18:59:01;16.90;35.20
21171;DHT22;10743;52.160;20.910;2023-02-22T19:01:30;17.60;28.70
21171;DHT22;10743;52.160;20.910;2023-02-22T19:04:05;17.70;35.60
21171;DHT22;10743;52.160;20.910;2023-02-22T19:09:10;17.60;34.80
21171;DHT22;10743;52.160;20.910;2023-02-22T19:16:38;17.70;28.30
21171;DHT22;10743;52.160;20.910;2023-02-22T19:26:28;16.60;34.90
21171;DHT22;10743;52.160;20.910;2023-02-22T19:28:57;17.60;35.20
21171;DHT22;10743;52.160;20.910;2023-02-22T19:31:29;17.50;28.30
21171;DHT22;10743;52.160;20.910;2023-02-22T19:34:04;17.50;34.90
21171;DHT22;10743;52.160;20.910;2023-02-22T19:36:40;17.60;35.10
21171;DHT22;10743;52.160;20.910;2023-02-22T19:39:17;17.50;34.70
21171;DHT22;10743;52.160;20.910;2023-02-22T19:41:46;17.60;34.70
21171;DHT22;10743;52.160;20.910;2023-02-22T19:46:40;17.50;34.20
21171;DHT22;10743;52.160;20.910;2023-02-22T19:49:07;17.60;34.80
21171;DHT22;10743;52.160;20.910;2023-02-22T19:51:34;17.60;34.80
21171;DHT22;10743;52.160;20.910;2023-02-22T19:54:04;17.50;28.40
21171;DHT22;10743;52.160;20.910;2023-02-22T19:56:33;17.60;34.70
21171;DHT22;10743;52.160;20.910;2023-02-22T19:59:04;17.50;27.90
21171;DHT22;10743;52.160;20.910;2023-02-22T20:01:40;17.60;34.80
21171;DHT22;10743;52.160;20.910;2023-02-22T20:04:14;17.50;34.60
21171;DHT22;10743;52.160;20.910;2023-02-22T20:06:49;17.50;35.00
21171;DHT22;10743;52.160;20.910;2023-02-22T20:09:23;17.40;34.20
21171;DHT22;10743;52.160;20.910;2023-02-22T20:11:56;17.40;34.70
21171;DHT22;10743;52.160;20.910;2023-02-22T20:14:24;17.40;28.10
21171;DHT22;10743;52.160;20.910;2023-02-22T20:16:54;17.30;28.00
21171;DHT22;10743;52.160;20.910;2023-02-22T20:19:22;17.30;34.40
21171;DHT22;10743;52.160;20.910;2023-02-22T20:24:24;17.40;28.00
21171;DHT22;10743;52.160;20.910;2023-02-22T20:26:51;17.30;34.60
21171;DHT22;10743;52.160;20.910;2023-02-22T20:29:22;17.50;34.80
21171;DHT22;10743;52.160;20.910;2023-02-22T20:31:59;17.30;34.60
21171;DHT22;10743;52.160;20.910;2023-02-22T20:34:28;17.40;28.10
21171;DHT22;10743;52.160;20.910;2023-02-22T20:36:59;17.40;34.70
21171;DHT22;10743;52.160;20.910;2023-02-22T20:39:27;17.80;28.10
21171;DHT22;10743;52.160;20.910;2023-02-22T20:41:55;17.40;31.70
21171;DHT22;10743;52.160;20.910;2023-02-22T20:44:22;17.40;33.70
21171;DHT22;10743;52.160;20.910;2023-02-22T20:46:49;17.50;33.80
21171;DHT22;10743;52.160;20.910;2023-02-22T20:49:18;17.20;33.60
21171;DHT22;10743;52.160;20.910;2023-02-22T20:51:46;17.50;33.70
21171;DHT22;10743;52.160;20.910;2023-02-22T20:54:15;17.40;34.00
21171;DHT22;10743;52.160;20.910;2023-02-22T20:56:46;17.30;27.70
21171;DHT22;10743;52.160;20.910;2023-02-22T20:59:15;17.30;27.70
21171;DHT22;10743;52.160;20.910;2023-02-22T21:06:41;17.20;28.00
21171;DHT22;10743;52.160;20.910;2023-02-22T21:09:13;17.20;34.80
21171;DHT22;10743;52.160;20.910;2023-02-22T21:11:42;17.40;34.20
21171;DHT22;10743;52.160;20.910;2023-02-22T21:14:14;17.40;34.30
21171;DHT22;10743;52.160;20.910;2023-02-22T21:16:46;17.30;27.80
21171;DHT22;10743;52.160;20.910;2023-02-22T21:19:14;17.30;27.50
21171;DHT22;10743;52.160;20.910;2023-02-22T21:21:59;17.40;30.60
21171;DHT22;10743;52.160;20.910;2023-02-22T21:24:27;17.40;33.70
21171;DHT22;10743;52.160;20.910;2023-02-22T21:26:55;17.40;34.20
21171;DHT22;10743;52.160;20.910;2023-02-22T21:29:27;17.40;34.20
21171;DHT22;10743;52.160;20.910;2023-02-22T21:31:55;17.20;34.30
21171;DHT22;10743;52.160;20.910;2023-02-22T21:36:51;17.20;34.80